createdAt,value
2019-04-03T00:00:32.818Z,60.59
2019-04-03T00:03:05.528Z,60.56
2019-04-03T00:05:37.073Z,60.65
2019-04-03T00:08:08.546Z,60.77
2019-04-03T00:10:39.992Z,60.86
2019-04-03T00:13:11.749Z,61.06
2019-04-03T00:15:44.624Z,61.10
2019-04-03T00:18:16.924Z,61.20
2019-04-03T00:20:49.206Z,61.38
2019-04-03T00:23:22.350Z,61.57
2019-04-03T00:25:54.540Z,61.68
2019-04-03T00:28:28.252Z,61.70
2019-04-03T00:31:00.300Z,61.59
2019-04-03T00:33:31.821Z,61.52
2019-04-03T00:36:03.435Z,61.45
2019-04-03T00:38:35.393Z,61.40
2019-04-03T00:41:07.047Z,61.36
2019-04-03T00:43:38.710Z,61.48
2019-04-03T00:46:10.366Z,61.46
2019-04-03T00:48:41.910Z,61.51
2019-04-03T00:51:13.578Z,61.60
2019-04-03T00:53:45.338Z,61.82
2019-04-03T00:56:16.796Z,62.02
2019-04-03T00:58:48.246Z,62.16
2019-04-03T01:01:20.768Z,62.25
2019-04-03T01:03:52.470Z,62.32
2019-04-03T01:06:24.139Z,62.43
2019-04-03T01:08:55.677Z,62.45
2019-04-03T01:11:27.249Z,62.43
2019-04-03T01:14:01.098Z,62.38
2019-04-03T01:16:33.007Z,62.29
2019-04-03T01:19:05.800Z,62.38
2019-04-03T01:21:37.839Z,62.43
2019-04-03T01:24:09.634Z,62.49
2019-04-03T01:26:41.286Z,62.61
2019-04-03T01:29:12.964Z,62.79
2019-04-03T01:31:45.208Z,63.01
2019-04-03T01:34:17.847Z,63.12
2019-04-03T01:36:50.367Z,63.25
2019-04-03T01:39:22.043Z,63.44
2019-04-03T01:41:53.702Z,63.49
2019-04-03T01:44:25.374Z,63.59
2019-04-03T01:46:57.700Z,63.71
2019-04-03T01:49:29.661Z,63.76
2019-04-03T01:52:01.499Z,63.84
2019-04-03T01:54:33.794Z,64.00
2019-04-03T01:57:06.438Z,64.13
2019-04-03T01:59:38.490Z,64.36
2019-04-03T02:02:10.138Z,64.48
2019-04-03T02:04:42.702Z,64.55
2019-04-03T02:07:15.128Z,64.63
2019-04-03T02:09:47.223Z,64.85
2019-04-03T02:12:19.740Z,65.01
2019-04-03T02:14:51.907Z,65.14
2019-04-03T02:17:24.175Z,65.19
2019-04-03T02:19:56.332Z,65.47
2019-04-03T02:22:29.592Z,65.66
2019-04-03T02:25:02.188Z,65.87
2019-04-03T02:27:34.388Z,66.03
2019-04-03T02:30:07.287Z,66.17
2019-04-03T02:32:38.742Z,66.22
2019-04-03T02:35:10.504Z,66.26
2019-04-03T02:37:41.961Z,66.30
2019-04-03T02:40:14.215Z,66.34
2019-04-03T02:42:45.625Z,66.31
2019-04-03T02:45:17.652Z,66.32
2019-04-03T02:47:49.189Z,66.23
2019-04-03T02:50:25.550Z,66.28
2019-04-03T02:52:58.936Z,66.33
2019-04-03T02:55:30.310Z,66.43
2019-04-03T02:58:02.276Z,66.53
2019-04-03T03:00:34.124Z,66.68
2019-04-03T03:03:05.796Z,66.75
2019-04-03T03:05:37.703Z,66.85
2019-04-03T03:08:09.975Z,67.04
2019-04-03T03:10:41.686Z,67.16
2019-04-03T03:13:13.741Z,67.24
2019-04-03T03:15:45.592Z,67.34
2019-04-03T03:18:16.962Z,67.45
2019-04-03T03:20:48.917Z,67.53
2019-04-03T03:23:23.376Z,67.59
2019-04-03T03:25:53.564Z,67.61
2019-04-03T03:28:25.219Z,67.57
2019-04-03T03:31:03.691Z,67.40
2019-04-03T03:33:36.198Z,67.32
2019-04-03T03:36:05.414Z,67.26
2019-04-03T03:38:39.421Z,67.15
2019-04-03T03:41:10.488Z,67.06
2019-04-03T03:43:42.148Z,67.06
2019-04-03T03:46:13.905Z,67.12
2019-04-03T03:48:45.813Z,67.11
2019-04-03T03:51:17.916Z,67.11
2019-04-03T03:53:49.804Z,67.10
2019-04-03T03:56:21.539Z,67.18
2019-04-03T03:58:54.342Z,67.24
2019-04-03T04:01:30.189Z,67.28
2019-04-03T04:03:59.474Z,67.10
2019-04-03T04:06:35.049Z,66.63
2019-04-03T04:09:06.020Z,66.15
2019-04-03T04:11:37.787Z,65.53
2019-04-03T04:14:09.396Z,64.99
2019-04-03T04:16:41.261Z,64.37
2019-04-03T04:19:12.724Z,63.69
2019-04-03T04:21:45.216Z,63.15
2019-04-03T04:24:17.735Z,62.79
2019-04-03T04:26:50.639Z,62.14
2019-04-03T04:29:22.106Z,62.13
2019-04-03T04:31:53.982Z,61.16
2019-04-03T04:34:25.721Z,60.98
2019-04-03T04:36:57.769Z,60.53
2019-04-03T04:39:29.846Z,60.45
2019-04-03T04:42:03.371Z,59.91
2019-04-03T04:44:35.540Z,59.52
2019-04-03T04:47:07.275Z,59.15
2019-04-03T04:49:38.889Z,59.03
2019-04-03T04:52:10.717Z,58.76
2019-04-03T04:54:43.033Z,58.54
2019-04-03T04:57:14.641Z,58.37
2019-04-03T04:59:46.530Z,57.93
2019-04-03T05:02:19.869Z,57.64
2019-04-03T05:04:51.875Z,57.16
2019-04-03T05:07:23.738Z,56.75
2019-04-03T05:09:55.390Z,56.49
2019-04-03T05:12:26.825Z,56.18
2019-04-03T05:14:58.772Z,55.75
2019-04-03T05:17:30.462Z,55.28
2019-04-03T05:20:02.429Z,55.42
2019-04-03T05:22:34.249Z,54.98
2019-04-03T05:25:05.823Z,54.62
2019-04-03T05:27:37.597Z,54.40
2019-04-03T05:30:10.034Z,53.98
2019-04-03T05:32:42.531Z,53.97
2019-04-03T05:35:14.940Z,54.01
2019-04-03T05:37:47.201Z,53.57
2019-04-03T05:40:19.041Z,53.54
2019-04-03T05:42:50.915Z,53.74
2019-04-03T05:45:22.297Z,54.04
2019-04-03T05:47:54.294Z,53.63
2019-04-03T05:50:26.351Z,53.40
2019-04-03T05:52:58.573Z,52.59
2019-04-03T05:55:29.879Z,51.71
2019-04-03T05:58:01.274Z,51.29
2019-04-03T06:00:38.046Z,50.78
2019-04-03T06:03:09.402Z,50.69
2019-04-03T06:05:41.843Z,49.34
2019-04-03T06:08:14.563Z,49.90
2019-04-03T06:10:46.258Z,49.64
2019-04-03T06:13:17.868Z,48.53
2019-04-03T06:15:49.351Z,48.45
2019-04-03T06:18:22.572Z,48.49
2019-04-03T06:20:55.507Z,47.22
2019-04-03T06:23:27.050Z,46.51
2019-04-03T06:26:00.798Z,46.72
2019-04-03T06:28:31.711Z,47.44
2019-04-03T06:31:03.681Z,45.75
2019-04-03T06:33:36.593Z,45.92
2019-04-03T06:36:08.220Z,44.40
2019-04-03T06:38:39.862Z,45.64
2019-04-03T06:41:11.122Z,45.53
2019-04-03T06:43:42.985Z,45.30
2019-04-03T06:46:14.769Z,45.44
2019-04-03T06:48:46.206Z,43.03
2019-04-03T06:51:17.960Z,44.29
2019-04-03T06:53:49.620Z,43.01
2019-04-03T06:56:21.425Z,42.93
2019-04-03T06:58:52.936Z,43.39
2019-04-03T07:01:24.600Z,43.68
2019-04-03T07:03:56.357Z,43.91
2019-04-03T07:06:27.794Z,42.95
2019-04-03T07:08:59.473Z,42.70
2019-04-03T07:11:31.230Z,42.57
2019-04-03T07:14:02.972Z,41.13
2019-04-03T07:16:37.684Z,41.47
2019-04-03T07:19:08.675Z,41.47
2019-04-03T07:21:41.441Z,41.26
2019-04-03T07:24:13.364Z,41.42
2019-04-03T07:26:44.996Z,41.64
2019-04-03T07:29:17.402Z,41.38
2019-04-03T07:31:49.238Z,40.79
2019-04-03T07:34:20.880Z,39.67
2019-04-03T07:36:52.615Z,39.07
2019-04-03T07:39:24.150Z,38.87
2019-04-03T07:41:55.625Z,38.73
2019-04-03T07:44:27.707Z,38.30
2019-04-03T07:47:00.054Z,38.40
2019-04-03T07:49:31.423Z,38.29
2019-04-03T07:52:03.055Z,37.94
2019-04-03T07:54:34.729Z,36.74
2019-04-03T07:57:09.567Z,35.94
2019-04-03T07:59:39.359Z,35.74
2019-04-03T08:02:12.819Z,36.33
2019-04-03T08:04:44.115Z,36.03
2019-04-03T08:07:15.567Z,36.38
2019-04-03T08:09:47.240Z,35.75
2019-04-03T08:12:18.798Z,35.09
2019-04-03T08:14:50.131Z,35.07
2019-04-03T08:17:23.321Z,35.21
2019-04-03T08:19:55.279Z,34.93
2019-04-03T08:22:27.040Z,35.38
2019-04-03T08:24:58.653Z,35.34
2019-04-03T08:27:30.059Z,35.76
2019-04-03T08:30:01.431Z,35.49
2019-04-03T08:32:34.094Z,35.59
2019-04-03T08:35:19.467Z,35.22
2019-04-03T08:37:41.674Z,35.29
2019-04-03T08:40:12.257Z,35.41
2019-04-03T08:42:43.716Z,35.62
2019-04-03T08:45:15.475Z,35.23
2019-04-03T08:47:47.132Z,35.60
2019-04-03T08:50:18.826Z,35.56
2019-04-03T08:52:50.324Z,36.34
2019-04-03T08:55:22.043Z,34.94
2019-04-03T08:57:53.555Z,34.96
2019-04-03T09:00:24.890Z,34.84
2019-04-03T09:02:56.161Z,34.24
2019-04-03T09:05:27.919Z,33.87
2019-04-03T09:07:59.354Z,34.05
2019-04-03T09:10:32.692Z,33.62
2019-04-03T09:13:16.096Z,32.75
2019-04-03T09:15:37.000Z,32.50
2019-04-03T09:18:08.654Z,32.93
2019-04-03T09:20:42.745Z,32.91
2019-04-03T09:23:13.598Z,33.47
2019-04-03T09:25:46.095Z,33.71
2019-04-03T09:28:17.422Z,33.79
2019-04-03T09:30:49.007Z,32.66
2019-04-03T09:33:24.959Z,32.56
2019-04-03T09:35:54.446Z,33.20
2019-04-03T09:38:26.006Z,33.96
2019-04-03T09:40:57.679Z,33.62
2019-04-03T09:43:29.198Z,34.05
2019-04-03T09:46:00.895Z,33.91
2019-04-03T09:48:34.873Z,34.66
2019-04-03T09:51:09.037Z,33.82
2019-04-03T09:53:39.554Z,33.39
2019-04-03T09:56:11.115Z,32.97
2019-04-03T09:58:43.009Z,32.74
2019-04-03T10:01:17.718Z,32.25
2019-04-03T10:03:47.608Z,32.40
2019-04-03T10:06:19.260Z,32.97
2019-04-03T10:08:50.724Z,32.68
2019-04-03T10:11:22.794Z,32.55
2019-04-03T10:13:56.546Z,32.41
2019-04-03T10:16:27.744Z,32.53
2019-04-03T10:18:59.315Z,32.33
2019-04-03T10:21:33.360Z,32.42
2019-04-03T10:24:13.867Z,32.81
2019-04-03T10:26:45.540Z,32.69
2019-04-03T10:29:19.083Z,31.94
2019-04-03T10:31:50.187Z,31.96
2019-04-03T10:34:22.053Z,32.02
2019-04-03T10:36:53.816Z,32.22
2019-04-03T10:39:25.555Z,32.69
2019-04-03T10:41:58.113Z,33.10
2019-04-03T10:44:30.127Z,33.76
2019-04-03T10:47:02.339Z,33.78
2019-04-03T10:49:33.819Z,32.81
2019-04-03T10:52:05.296Z,33.09
2019-04-03T10:54:38.142Z,31.69
2019-04-03T10:57:10.150Z,31.55
2019-04-03T10:59:41.794Z,31.22
2019-04-03T11:02:14.128Z,31.57
2019-04-03T11:04:45.724Z,30.47
2019-04-03T11:07:17.093Z,30.64
2019-04-03T11:09:48.745Z,32.22
2019-04-03T11:12:20.224Z,32.70
2019-04-03T11:15:01.643Z,31.46
2019-04-03T11:17:34.163Z,30.89
2019-04-03T11:20:09.710Z,29.82
2019-04-03T11:22:42.775Z,29.79
2019-04-03T11:25:15.371Z,29.31
2019-04-03T11:27:46.615Z,30.02
2019-04-03T11:30:23.523Z,29.66
2019-04-03T11:32:51.554Z,30.22
2019-04-03T11:35:23.121Z,29.20
2019-04-03T11:37:55.100Z,29.59
2019-04-03T11:40:28.192Z,29.80
2019-04-03T11:42:59.962Z,30.07
2019-04-03T11:45:31.711Z,29.41
2019-04-03T11:48:03.713Z,29.90
2019-04-03T11:50:35.708Z,30.34
2019-04-03T11:53:07.785Z,29.57
2019-04-03T11:55:39.968Z,29.25
2019-04-03T11:58:12.613Z,29.21
2019-04-03T12:00:45.738Z,29.66
2019-04-03T12:03:17.677Z,29.68
2019-04-03T12:05:49.373Z,30.15
2019-04-03T12:08:20.834Z,28.68
2019-04-03T12:10:52.960Z,28.54
2019-04-03T12:13:24.409Z,28.36
2019-04-03T12:15:58.231Z,28.23
2019-04-03T12:18:29.502Z,28.40
2019-04-03T12:21:03.061Z,28.44
2019-04-03T12:23:34.712Z,28.99
2019-04-03T12:26:06.236Z,28.76
2019-04-03T12:28:37.793Z,28.24
2019-04-03T12:31:09.502Z,27.89
2019-04-03T12:33:52.393Z,28.22
2019-04-03T12:36:15.918Z,27.56
2019-04-03T12:38:47.284Z,27.44
2019-04-03T12:41:18.927Z,27.64
2019-04-03T12:43:50.802Z,27.46
2019-04-03T12:46:25.230Z,27.80
2019-04-03T12:48:56.779Z,28.08
2019-04-03T12:51:29.377Z,28.18
2019-04-03T12:54:01.794Z,28.52
2019-04-03T12:56:33.831Z,28.74
2019-04-03T12:59:08.700Z,29.18
2019-04-03T13:01:40.502Z,28.57
2019-04-03T13:04:12.224Z,28.76
2019-04-03T13:06:44.508Z,29.03
2019-04-03T13:09:16.197Z,29.43
2019-04-03T13:11:49.732Z,29.73
2019-04-03T13:14:25.230Z,29.64
2019-04-03T13:16:54.112Z,29.80
2019-04-03T13:19:25.998Z,29.38
2019-04-03T13:21:57.637Z,29.14
2019-04-03T13:24:29.379Z,28.35
2019-04-03T13:27:01.216Z,28.48
2019-04-03T13:29:32.870Z,28.99
2019-04-03T13:32:04.476Z,29.34
2019-04-03T13:34:36.261Z,29.58
2019-04-03T13:37:07.814Z,29.52
2019-04-03T13:39:39.774Z,29.44
2019-04-03T13:42:13.913Z,29.33
2019-04-03T13:44:44.521Z,29.30
2019-04-03T13:47:16.063Z,29.46
2019-04-03T13:49:50.115Z,28.93
2019-04-03T13:52:21.159Z,28.99
2019-04-03T13:54:53.284Z,29.21
2019-04-03T13:57:24.780Z,28.72
2019-04-03T14:00:01.090Z,28.66
2019-04-03T14:02:30.344Z,28.49
2019-04-03T14:05:01.872Z,28.53
2019-04-03T14:07:34.234Z,28.98
2019-04-03T14:10:10.107Z,29.17
2019-04-03T14:12:44.554Z,28.92
2019-04-03T14:15:15.579Z,29.09
2019-04-03T14:17:55.221Z,28.82
2019-04-03T14:20:23.266Z,29.42
2019-04-03T14:22:54.299Z,29.29
2019-04-03T14:25:31.357Z,29.45
2019-04-03T14:28:02.813Z,29.53
2019-04-03T14:30:34.238Z,29.68
2019-04-03T14:33:06.483Z,29.89
2019-04-03T14:35:49.386Z,29.52
2019-04-03T14:38:12.991Z,29.24
2019-04-03T14:40:45.057Z,29.96
2019-04-03T14:43:16.695Z,29.79
2019-04-03T14:45:48.424Z,29.40
2019-04-03T14:48:19.908Z,30.07
2019-04-03T14:50:51.964Z,30.59
2019-04-03T14:53:24.640Z,31.76
2019-04-03T14:55:56.343Z,31.85
2019-04-03T14:58:28.197Z,31.81
2019-04-03T15:00:59.853Z,31.54
2019-04-03T15:03:33.617Z,30.47
2019-04-03T15:06:04.715Z,29.59
2019-04-03T15:08:36.955Z,29.81
2019-04-03T15:11:08.812Z,30.06
2019-04-03T15:13:40.935Z,30.17
2019-04-03T15:16:13.105Z,30.21
2019-04-03T15:18:44.783Z,30.48
2019-04-03T15:21:16.579Z,32.56
2019-04-03T15:23:48.590Z,33.99
2019-04-03T15:26:22.238Z,34.73
2019-04-03T15:28:53.290Z,34.99
2019-04-03T15:31:25.895Z,35.10
2019-04-03T15:33:57.667Z,35.40
2019-04-03T15:36:29.483Z,35.58
2019-04-03T15:39:00.955Z,35.98
2019-04-03T15:41:34.906Z,36.13
2019-04-03T15:44:06.527Z,36.57
2019-04-03T15:46:38.313Z,36.11
2019-04-03T15:49:09.675Z,35.93
2019-04-03T15:51:41.813Z,36.21
2019-04-03T15:54:13.536Z,36.36
2019-04-03T15:56:46.029Z,36.43
2019-04-03T15:59:17.991Z,36.81
2019-04-03T16:01:49.346Z,37.25
2019-04-03T16:04:21.968Z,37.73
2019-04-03T16:06:53.581Z,37.72
2019-04-03T16:09:25.665Z,37.03
2019-04-03T16:12:00.089Z,36.83
2019-04-03T16:14:30.951Z,37.17
2019-04-03T16:17:02.999Z,38.09
2019-04-03T16:19:34.519Z,38.36
2019-04-03T16:22:06.123Z,38.90
2019-04-03T16:24:38.145Z,38.73
2019-04-03T16:27:09.806Z,38.90
2019-04-03T16:29:41.900Z,38.95
2019-04-03T16:32:13.812Z,39.27
2019-04-03T16:34:45.397Z,39.27
2019-04-03T16:37:20.481Z,39.60
2019-04-03T16:39:50.406Z,40.08
2019-04-03T16:42:22.616Z,40.75
2019-04-03T16:44:54.617Z,41.89
2019-04-03T16:47:27.603Z,41.89
2019-04-03T16:50:00.348Z,42.32
2019-04-03T16:52:32.388Z,43.08
2019-04-03T16:55:04.787Z,43.73
2019-04-03T16:57:36.356Z,44.18
2019-04-03T17:00:09.562Z,44.15
2019-04-03T17:02:41.464Z,44.62
2019-04-03T17:05:12.941Z,45.12
2019-04-03T17:07:45.090Z,45.47
2019-04-03T17:10:16.746Z,45.68
2019-04-03T17:12:50.500Z,45.86
2019-04-03T17:15:22.313Z,46.20
2019-04-03T17:17:53.911Z,46.84
2019-04-03T17:20:26.489Z,47.44
2019-04-03T17:22:59.469Z,47.88
2019-04-03T17:25:43.908Z,48.27
2019-04-03T17:28:08.635Z,48.72
2019-04-03T17:30:37.729Z,48.82
2019-04-03T17:33:09.490Z,48.72
2019-04-03T17:35:47.317Z,48.78
2019-04-03T17:38:18.302Z,48.75
2019-04-03T17:40:52.852Z,48.82
2019-04-03T17:43:24.716Z,49.39
2019-04-03T17:45:56.606Z,50.00
2019-04-03T17:48:28.214Z,50.27
2019-04-03T17:51:02.528Z,50.88
2019-04-03T17:53:34.840Z,51.25
2019-04-03T17:56:07.712Z,51.73
2019-04-03T17:58:39.557Z,52.05
2019-04-03T18:01:11.541Z,52.11
2019-04-03T18:03:43.072Z,52.12
2019-04-03T18:06:14.857Z,52.20
2019-04-03T18:08:46.597Z,51.60
2019-04-03T18:11:18.474Z,51.72
2019-04-03T18:13:49.938Z,51.79
2019-04-03T18:16:21.698Z,52.41
2019-04-03T18:18:53.227Z,53.16
2019-04-03T18:21:24.902Z,54.04
2019-04-03T18:23:56.354Z,54.84
2019-04-03T18:26:30.450Z,55.05
2019-04-03T18:29:01.319Z,55.58
2019-04-03T18:31:32.867Z,56.03
2019-04-03T18:34:04.418Z,56.42
2019-04-03T18:36:36.367Z,57.16
2019-04-03T18:39:11.940Z,57.12
2019-04-03T18:41:43.623Z,56.81
2019-04-03T18:44:22.041Z,56.65
2019-04-03T18:46:50.277Z,56.51
2019-04-03T18:49:21.847Z,56.56
2019-04-03T18:51:53.696Z,56.62
2019-04-03T18:54:25.322Z,56.70
2019-04-03T18:56:57.211Z,56.79
2019-04-03T18:59:28.987Z,56.90
2019-04-03T19:02:03.549Z,56.84
2019-04-03T19:04:37.433Z,56.70
2019-04-03T19:07:07.645Z,56.74
2019-04-03T19:09:40.938Z,56.88
2019-04-03T19:12:13.665Z,57.14
2019-04-03T19:14:45.920Z,57.27
2019-04-03T19:17:17.634Z,57.47
2019-04-03T19:19:49.491Z,57.61
2019-04-03T19:22:21.379Z,57.89
2019-04-03T19:24:52.831Z,58.24
2019-04-03T19:27:24.919Z,58.40
2019-04-03T19:29:56.854Z,58.67
2019-04-03T19:32:29.802Z,59.03
2019-04-03T19:35:11.243Z,59.31
2019-04-03T19:37:45.015Z,59.55
2019-04-03T19:40:15.966Z,59.84
2019-04-03T19:42:49.003Z,60.04
2019-04-03T19:45:21.531Z,60.41
2019-04-03T19:47:55.019Z,60.86
2019-04-03T19:50:26.597Z,61.15
2019-04-03T19:52:58.152Z,61.25
2019-04-03T19:55:30.511Z,61.38
2019-04-03T19:58:03.764Z,61.54
2019-04-03T20:00:35.541Z,61.69
2019-04-03T20:03:08.021Z,61.79
2019-04-03T20:05:39.842Z,62.00
2019-04-03T20:08:12.296Z,62.06
2019-04-03T20:10:44.067Z,62.24
2019-04-03T20:13:15.742Z,62.27
2019-04-03T20:15:47.667Z,62.31
2019-04-03T20:18:19.514Z,62.22
2019-04-03T20:20:51.226Z,62.24
2019-04-03T20:23:29.960Z,62.26
2019-04-03T20:25:58.499Z,62.39
2019-04-03T20:28:30.101Z,62.20
2019-04-03T20:31:01.998Z,62.09
2019-04-03T20:33:33.592Z,61.74
2019-04-03T20:36:05.432Z,61.57
2019-04-03T20:38:36.884Z,61.34
2019-04-03T20:41:08.432Z,61.06
2019-04-03T20:43:42.695Z,61.01
2019-04-03T20:46:13.497Z,61.33
2019-04-03T20:48:46.070Z,61.77
2019-04-03T20:51:18.625Z,61.64
2019-04-03T20:53:50.860Z,61.50
2019-04-03T20:56:22.583Z,61.35
2019-04-03T20:58:56.463Z,61.26
2019-04-03T21:01:27.934Z,61.40
2019-04-03T21:03:59.681Z,61.85
2019-04-03T21:06:32.785Z,62.20
2019-04-03T21:09:06.392Z,62.44
2019-04-03T21:11:39.583Z,62.73
2019-04-03T21:14:11.787Z,63.03
2019-04-03T21:16:43.463Z,63.21
2019-04-03T21:19:15.394Z,63.25
2019-04-03T21:21:46.924Z,63.33
2019-04-03T21:24:18.665Z,63.69
2019-04-03T21:26:50.541Z,63.86
2019-04-03T21:29:22.210Z,64.01
2019-04-03T21:31:56.410Z,64.14
2019-04-03T21:34:27.127Z,64.19
2019-04-03T21:36:58.810Z,64.36
2019-04-03T21:39:30.472Z,64.54
2019-04-03T21:42:01.874Z,64.65
2019-04-03T21:44:33.759Z,64.64
2019-04-03T21:47:05.933Z,64.56
2019-04-03T21:49:37.401Z,64.63
2019-04-03T21:52:09.059Z,64.55
2019-04-03T21:54:41.637Z,64.57
2019-04-03T21:57:13.271Z,64.62
2019-04-03T21:59:44.952Z,64.66
2019-04-03T22:02:16.736Z,64.57
2019-04-03T22:04:48.476Z,64.46
2019-04-03T22:07:20.234Z,64.30
2019-04-03T22:09:52.293Z,64.19
2019-04-03T22:12:24.057Z,64.04
2019-04-03T22:14:55.800Z,63.90
2019-04-03T22:17:27.682Z,63.79
2019-04-03T22:19:59.355Z,63.70
2019-04-03T22:22:31.939Z,63.67
2019-04-03T22:25:04.629Z,63.61
2019-04-03T22:27:36.354Z,63.47
2019-04-03T22:30:07.991Z,63.28
2019-04-03T22:32:39.870Z,63.22
2019-04-03T22:35:11.536Z,63.27
2019-04-03T22:37:43.393Z,63.39
2019-04-03T22:40:15.130Z,63.49
2019-04-03T22:42:46.601Z,63.74
2019-04-03T22:45:20.079Z,63.97
2019-04-03T22:47:51.352Z,64.30
2019-04-03T22:50:22.691Z,64.59
2019-04-03T22:52:54.563Z,64.72
2019-04-03T22:55:26.328Z,64.94
2019-04-03T22:57:57.833Z,65.15
2019-04-03T23:00:29.744Z,65.30
2019-04-03T23:03:02.934Z,65.34
2019-04-03T23:05:34.599Z,65.60
2019-04-03T23:08:06.344Z,65.68
2019-04-03T23:10:38.202Z,65.65
2019-04-03T23:13:09.877Z,65.61
2019-04-03T23:15:41.747Z,65.60
2019-04-03T23:18:13.967Z,65.70
2019-04-03T23:20:46.691Z,65.80
2019-04-03T23:23:18.548Z,65.79
2019-04-03T23:25:50.220Z,65.85
2019-04-03T23:28:22.085Z,65.94
2019-04-03T23:30:53.738Z,66.02
2019-04-03T23:33:25.912Z,66.10
2019-04-03T23:35:57.361Z,66.43
2019-04-03T23:38:29.631Z,66.73
2019-04-03T23:41:01.068Z,66.95
2019-04-03T23:43:32.588Z,67.22
2019-04-03T23:46:04.396Z,67.42
2019-04-03T23:48:35.852Z,67.54
2019-04-03T23:51:07.498Z,67.59
2019-04-03T23:53:39.268Z,67.67
2019-04-03T23:56:11.129Z,67.73
2019-04-03T23:58:42.884Z,67.83
